Horrel Hill, South Carolina
Current Conditions -  °F | °C
As of 6:58 PM on Saturday 22 Nov 2014 (Local Time) from KMMT Reporting Station
Overcast Overcast  
Wind Chill: 47°   Ceiling: 6000
Heat Index: 47°   Visibility: 10mi
Dew Point: 29°   Wind: 2mph
Humidity: 49%   Direction: 60°ENE
Pressure: 30.34"   Gusts: NA
Location:  33.8814°N, 80.8478°W
Report Text: KMMT 222358Z AUTO 06002KT 10SM OVC060 08/M02 A3034 RMK AO2 SLP279 T00841018 10168 20080 55006
Loading
Personal Weather Stations






























Interactive Weather Map New forecast layout! Learn more

10-Day Weather Forecast

Advertisements
Track Severe Weather on mobile